Time;durP1;ratioP1;P1;durP2;ratioP2;P2;SDS_P1;SDS_P2;PMS_P1;PMS_P2;Temp;Humidity;BMP_temperature;BMP_pressure;BME280_temperature;BME280_humidity;BME280_pressure;Samples;Min_cycle;Max_cycle;Signal;HPM_P1;HPM_P2
2023/03/05 00:01:17;;;;;;;30.80;14.63;;;;;;;;;;5064376;28;20198;-27
2023/03/05 00:03:45;;;;;;;29.10;13.77;;;;;;;;;;5071648;28;20259;-27
2023/03/05 00:06:12;;;;;;;30.87;14.40;;;;;;;;;;5064904;28;20209;-28
2023/03/05 00:08:39;;;;;;;34.30;14.27;;;;;;;;;;5057782;28;20260;-24
2023/03/05 00:11:07;;;;;;;29.30;14.67;;;;;;;;;;5071432;28;20674;-26
2023/03/05 00:13:35;;;;;;;30.57;14.17;;;;;;;;;;5056890;28;20201;-25
2023/03/05 00:16:03;;;;;;;31.20;14.30;;;;;;;;;;5058826;28;20211;-26
2023/03/05 00:18:32;;;;;;;31.90;14.43;;;;;;;;;;5055407;28;20193;-25
2023/03/05 00:20:59;;;;;;;32.93;13.87;;;;;;;;;;5064565;28;20336;-25
2023/03/05 00:23:26;;;;;;;29.10;14.67;;;;;;;;;;5054923;28;20202;-26
2023/03/05 00:25:53;;;;;;;35.40;14.37;;;;;;;;;;5070975;28;20193;-28
2023/03/05 00:28:23;;;;;;;34.10;15.30;;;;;;;;;;5059587;28;20280;-25
2023/03/05 00:30:50;;;;;;;36.10;15.23;;;;;;;;;;5044133;28;20514;-25
2023/03/05 00:33:17;;;;;;;32.57;14.93;;;;;;;;;;5070894;28;20794;-25
2023/03/05 00:35:47;;;;;;;33.97;15.10;;;;;;;;;;5071442;28;20211;-24
2023/03/05 00:38:14;;;;;;;28.97;13.83;;;;;;;;;;5052994;28;20222;-27
2023/03/05 00:40:42;;;;;;;29.07;14.97;;;;;;;;;;5063424;28;20201;-25
2023/03/05 00:43:09;;;;;;;30.97;15.57;;;;;;;;;;5059331;28;20316;-26
2023/03/05 00:45:37;;;;;;;32.33;13.43;;;;;;;;;;5061188;28;20201;-24
2023/03/05 00:48:04;;;;;;;29.13;14.47;;;;;;;;;;5072967;28;20260;-26
2023/03/05 00:50:31;;;;;;;35.20;16.10;;;;;;;;;;5073060;28;20209;-26
2023/03/05 00:53:00;;;;;;;32.87;14.57;;;;;;;;;;5050547;28;20214;-25
2023/03/05 00:55:27;;;;;;;31.23;15.03;;;;;;;;;;5059584;28;20206;-28
2023/03/05 00:57:54;;;;;;;29.50;14.50;;;;;;;;;;5060286;28;20245;-26
2023/03/05 01:00:21;;;;;;;29.83;14.97;;;;;;;;;;5052483;28;20206;-25
2023/03/05 01:02:49;;;;;;;35.13;15.00;;;;;;;;;;5070477;28;20201;-27
2023/03/05 01:05:16;;;;;;;32.20;14.93;;;;;;;;;;5070664;28;20201;-27
2023/03/05 01:07:43;;;;;;;30.57;13.67;;;;;;;;;;5050279;28;20256;-26
2023/03/05 01:10:12;;;;;;;29.03;15.17;;;;;;;;;;5064890;28;20212;-25
2023/03/05 01:12:39;;;;;;;33.37;14.83;;;;;;;;;;5063521;28;20212;-28
2023/03/05 01:15:07;;;;;;;30.83;14.77;;;;;;;;;;5047070;28;20210;-25
2023/03/05 01:17:34;;;;;;;29.47;13.97;;;;;;;;;;5055431;28;20259;-27
2023/03/05 01:20:01;;;;;;;31.30;14.70;;;;;;;;;;5070139;28;20201;-27
2023/03/05 01:22:28;;;;;;;32.67;14.90;;;;;;;;;;5050948;28;20206;-27
2023/03/05 01:24:55;;;;;;;30.73;14.77;;;;;;;;;;5055160;28;20201;-27
2023/03/05 01:27:24;;;;;;;31.20;15.37;;;;;;;;;;5067352;28;20229;-28
2023/03/05 01:29:51;;;;;;;30.13;13.80;;;;;;;;;;5050352;28;20221;-24
2023/03/05 01:32:18;;;;;;;27.57;13.87;;;;;;;;;;5072322;28;20201;-26
2023/03/05 01:34:45;;;;;;;34.20;13.93;;;;;;;;;;5073547;28;20209;-25
2023/03/05 01:37:12;;;;;;;26.83;14.27;;;;;;;;;;5061770;28;20233;-26
2023/03/05 01:39:39;;;;;;;31.67;14.50;;;;;;;;;;5060467;28;20537;-28
2023/03/05 01:42:07;;;;;;;31.70;15.53;;;;;;;;;;5069957;28;20205;-28
2023/03/05 01:44:35;;;;;;;25.83;13.00;;;;;;;;;;5050642;28;20201;-26
2023/03/05 01:47:03;;;;;;;29.47;13.63;;;;;;;;;;5066339;28;20225;-26
2023/03/05 01:49:31;;;;;;;31.87;14.47;;;;;;;;;;5070160;28;20232;-28
2023/03/05 01:52:01;;;;;;;23.73;12.97;;;;;;;;;;5056828;28;20214;-28
2023/03/05 01:54:30;;;;;;;25.80;13.20;;;;;;;;;;5056517;28;20213;-25
2023/03/05 01:56:58;;;;;;;29.67;14.57;;;;;;;;;;5069927;28;20259;-26
2023/03/05 01:59:27;;;;;;;30.67;13.90;;;;;;;;;;5055553;28;20206;-28
2023/03/05 02:01:57;;;;;;;29.47;14.33;;;;;;;;;;5045871;28;20287;-26
2023/03/05 02:04:28;;;;;;;27.07;13.10;;;;;;;;;;5064317;28;20204;-25
2023/03/05 02:06:55;;;;;;;30.33;13.53;;;;;;;;;;5069755;28;20232;-28
2023/03/05 02:09:23;;;;;;;26.87;14.27;;;;;;;;;;5058954;28;20222;-27
2023/03/05 02:11:50;;;;;;;29.53;14.17;;;;;;;;;;5054960;28;20247;-25
2023/03/05 02:14:19;;;;;;;29.40;13.73;;;;;;;;;;5043997;28;20218;-26
2023/03/05 02:16:46;;;;;;;25.00;13.20;;;;;;;;;;5059174;28;20220;-28
2023/03/05 02:19:15;;;;;;;27.10;13.33;;;;;;;;;;5069685;28;20202;-28
2023/03/05 02:21:45;;;;;;;36.93;15.00;;;;;;;;;;5070207;28;20209;-27
2023/03/05 02:24:12;;;;;;;33.30;15.37;;;;;;;;;;5043596;28;20202;-25
2023/03/05 02:26:41;;;;;;;27.20;14.17;;;;;;;;;;5056350;28;20217;-27
2023/03/05 02:29:09;;;;;;;30.43;13.23;;;;;;;;;;5048546;28;20254;-25
2023/03/05 02:31:37;;;;;;;27.70;13.90;;;;;;;;;;5059643;28;20490;-28
2023/03/05 02:34:05;;;;;;;29.10;13.03;;;;;;;;;;5071896;28;20209;-25
2023/03/05 02:36:32;;;;;;;31.10;14.57;;;;;;;;;;5073870;28;20225;-28
2023/03/05 02:39:01;;;;;;;34.47;15.37;;;;;;;;;;5055220;28;20204;-26
2023/03/05 02:41:28;;;;;;;30.50;15.00;;;;;;;;;;5066958;28;20213;-28
2023/03/05 02:43:55;;;;;;;36.07;14.43;;;;;;;;;;5052244;28;20206;-28
2023/03/05 02:46:22;;;;;;;34.10;14.00;;;;;;;;;;5065577;28;20225;-28
2023/03/05 02:48:49;;;;;;;27.90;13.83;;;;;;;;;;5073258;28;20719;-24
2023/03/05 02:51:17;;;;;;;34.13;15.57;;;;;;;;;;5074453;28;20266;-27
2023/03/05 02:53:44;;;;;;;30.43;14.90;;;;;;;;;;5051175;28;20209;-25
2023/03/05 02:56:12;;;;;;;28.37;14.67;;;;;;;;;;5060903;28;20201;-27
2023/03/05 02:58:39;;;;;;;29.93;14.33;;;;;;;;;;5141199;22;20529;-24
2023/03/05 03:01:06;;;;;;;35.93;15.73;;;;;;;;;;5023934;28;20199;-25
2023/03/05 03:03:34;;;;;;;30.93;14.33;;;;;;;;;;5012482;28;20211;-25
2023/03/05 03:06:01;;;;;;;31.30;14.80;;;;;;;;;;5015770;28;20217;-25
2023/03/05 03:08:28;;;;;;;30.97;15.07;;;;;;;;;;5040780;28;20210;-26
2023/03/05 03:10:55;;;;;;;32.00;14.60;;;;;;;;;;5032288;28;20209;-23
2023/03/05 03:13:24;;;;;;;29.37;13.93;;;;;;;;;;5029515;28;20580;-25
2023/03/05 03:15:51;;;;;;;30.47;13.97;;;;;;;;;;5032584;28;20633;-28
2023/03/05 03:18:18;;;;;;;32.67;15.27;;;;;;;;;;5032362;28;20213;-24
2023/03/05 03:20:46;;;;;;;31.30;14.23;;;;;;;;;;5032482;28;20210;-26
2023/03/05 03:23:13;;;;;;;33.50;14.73;;;;;;;;;;5022820;28;20249;-24
2023/03/05 03:25:40;;;;;;;33.63;14.47;;;;;;;;;;5023783;28;20206;-27
2023/03/05 03:28:07;;;;;;;25.33;13.00;;;;;;;;;;5035179;28;20232;-26
2023/03/05 03:30:35;;;;;;;28.23;13.33;;;;;;;;;;5037071;28;20226;-31
2023/03/05 03:33:02;;;;;;;30.30;14.97;;;;;;;;;;5031764;28;20565;-30
2023/03/05 03:35:30;;;;;;;30.23;14.20;;;;;;;;;;5032020;28;20253;-32
2023/03/05 03:37:57;;;;;;;29.27;13.37;;;;;;;;;;5026641;28;20234;-28
2023/03/05 03:40:24;;;;;;;30.20;14.50;;;;;;;;;;5031259;28;20230;-35
2023/03/05 03:42:52;;;;;;;33.03;14.57;;;;;;;;;;5030182;28;20373;-33
2023/03/05 03:45:20;;;;;;;32.70;14.83;;;;;;;;;;5035606;28;20202;-27
2023/03/05 03:47:49;;;;;;;33.73;14.60;;;;;;;;;;5031471;28;20246;-33
2023/03/05 03:50:16;;;;;;;27.83;14.50;;;;;;;;;;5031195;28;20223;-34
2023/03/05 03:52:44;;;;;;;28.77;14.63;;;;;;;;;;5025121;28;20203;-32
2023/03/05 03:55:11;;;;;;;27.20;12.40;;;;;;;;;;5029022;28;20218;-36
2023/03/05 03:57:39;;;;;;;31.87;15.20;;;;;;;;;;5028018;28;20523;-30
2023/03/05 04:00:07;;;;;;;31.87;14.50;;;;;;;;;;5033946;28;20214;-31
2023/03/05 04:02:34;;;;;;;29.70;14.80;;;;;;;;;;5030991;28;20202;-30
2023/03/05 04:05:03;;;;;;;39.50;16.03;;;;;;;;;;5031400;28;20641;-33
2023/03/05 04:07:30;;;;;;;32.03;15.20;;;;;;;;;;5035491;28;20609;-36
2023/03/05 04:09:57;;;;;;;31.53;14.20;;;;;;;;;;5029324;28;20237;-35
2023/03/05 04:12:24;;;;;;;32.03;15.30;;;;;;;;;;5029148;28;20202;-33
2023/03/05 04:14:52;;;;;;;32.67;13.93;;;;;;;;;;5033623;28;20208;-30
2023/03/05 04:17:19;;;;;;;34.50;14.93;;;;;;;;;;5031879;28;20219;-37
2023/03/05 04:19:46;;;;;;;26.20;13.07;;;;;;;;;;5030951;28;20203;-33
2023/03/05 04:22:15;;;;;;;32.57;13.63;;;;;;;;;;5025928;28;20297;-31
2023/03/05 04:24:43;;;;;;;30.03;13.60;;;;;;;;;;5030516;28;20214;-29
2023/03/05 04:27:10;;;;;;;26.83;14.37;;;;;;;;;;5030821;28;20222;-30
2023/03/05 04:29:38;;;;;;;30.57;14.17;;;;;;;;;;5033480;28;20214;-31
2023/03/05 04:32:05;;;;;;;30.83;13.90;;;;;;;;;;5034773;28;20217;-33
2023/03/05 04:34:34;;;;;;;28.63;13.87;;;;;;;;;;5034836;28;20194;-30
2023/03/05 04:37:01;;;;;;;29.33;13.47;;;;;;;;;;5031840;28;20238;-29
2023/03/05 04:39:29;;;;;;;30.50;14.33;;;;;;;;;;5025767;28;20206;-33
2023/03/05 04:41:57;;;;;;;28.53;14.53;;;;;;;;;;5030918;28;20633;-29
2023/03/05 04:44:24;;;;;;;31.30;14.60;;;;;;;;;;5037714;28;20715;-34
2023/03/05 04:46:52;;;;;;;32.37;14.63;;;;;;;;;;5025283;28;20214;-32
2023/03/05 04:49:19;;;;;;;32.23;15.37;;;;;;;;;;5029720;28;20219;-28
2023/03/05 04:51:46;;;;;;;31.30;14.20;;;;;;;;;;5026960;28;20199;-27
2023/03/05 04:54:13;;;;;;;32.73;14.87;;;;;;;;;;5030726;28;20206;-29
2023/03/05 04:56:42;;;;;;;27.80;13.50;;;;;;;;;;5029465;28;20234;-28
2023/03/05 04:59:09;;;;;;;32.47;14.80;;;;;;;;;;5028566;28;20211;-29
2023/03/05 05:01:36;;;;;;;33.10;15.27;;;;;;;;;;5034920;28;20211;-30
2023/03/05 05:04:03;;;;;;;34.63;15.03;;;;;;;;;;5030037;28;20214;-28
2023/03/05 05:06:30;;;;;;;33.17;15.17;;;;;;;;;;5025648;28;20304;-28
2023/03/05 05:08:57;;;;;;;36.00;14.97;;;;;;;;;;5025539;28;20202;-30
2023/03/05 05:11:24;;;;;;;26.03;13.37;;;;;;;;;;5029515;28;20660;-26
2023/03/05 05:13:53;;;;;;;29.23;14.50;;;;;;;;;;5032475;28;20214;-31
2023/03/05 05:16:20;;;;;;;32.27;14.63;;;;;;;;;;5034310;28;20252;-35
2023/03/05 05:18:47;;;;;;;29.17;14.40;;;;;;;;;;5029853;28;20220;-31
2023/03/05 05:21:17;;;;;;;25.87;12.63;;;;;;;;;;5034612;28;20198;-31
2023/03/05 05:23:44;;;;;;;36.57;14.20;;;;;;;;;;5033148;28;20202;-31
2023/03/05 05:26:13;;;;;;;33.50;14.10;;;;;;;;;;5029887;28;20210;-35
2023/03/05 05:28:42;;;;;;;30.87;14.60;;;;;;;;;;5033140;28;20207;-32
2023/03/05 05:31:11;;;;;;;30.13;13.77;;;;;;;;;;5036505;28;20598;-28
2023/03/05 05:33:39;;;;;;;28.40;14.07;;;;;;;;;;5029712;28;20199;-29
2023/03/05 05:36:07;;;;;;;31.47;14.27;;;;;;;;;;5024545;28;20211;-33
2023/03/05 05:38:34;;;;;;;32.60;13.70;;;;;;;;;;5034868;28;20202;-36
2023/03/05 05:41:05;;;;;;;33.87;14.90;;;;;;;;;;5029303;28;20199;-34
2023/03/05 05:43:32;;;;;;;27.73;14.43;;;;;;;;;;5024207;28;20206;-36
2023/03/05 05:46:00;;;;;;;31.73;14.07;;;;;;;;;;5034433;28;20207;-34
2023/03/05 05:48:29;;;;;;;30.53;14.37;;;;;;;;;;5028812;28;20198;-33
2023/03/05 05:50:56;;;;;;;34.87;15.43;;;;;;;;;;5024037;28;20227;-34
2023/03/05 05:53:24;;;;;;;31.37;14.40;;;;;;;;;;5036925;28;20206;-29
2023/03/05 05:55:51;;;;;;;31.23;15.20;;;;;;;;;;5028883;28;20199;-31
2023/03/05 05:58:18;;;;;;;29.17;14.67;;;;;;;;;;5023429;28;20262;-29
2023/03/05 06:00:45;;;;;;;31.17;14.10;;;;;;;;;;5035150;28;20236;-32
2023/03/05 06:03:12;;;;;;;31.77;15.17;;;;;;;;;;5028935;28;20203;-37
2023/03/05 06:05:43;;;;;;;30.80;13.77;;;;;;;;;;5029357;28;20664;-27
2023/03/05 06:08:10;;;;;;;32.40;14.20;;;;;;;;;;5028427;28;20679;-30
2023/03/05 06:10:37;;;;;;;28.77;14.43;;;;;;;;;;5029798;28;20234;-31
2023/03/05 06:13:04;;;;;;;33.93;15.70;;;;;;;;;;5023595;28;20519;-32
2023/03/05 06:15:32;;;;;;;28.77;14.13;;;;;;;;;;5039561;28;20214;-31
2023/03/05 06:17:59;;;;;;;29.97;14.93;;;;;;;;;;5031297;28;20245;-34
2023/03/05 06:20:27;;;;;;;31.67;16.33;;;;;;;;;;5031444;28;20210;-34
2023/03/05 06:22:55;;;;;;;33.00;14.17;;;;;;;;;;5026888;28;20301;-35
2023/03/05 06:25:22;;;;;;;29.73;14.33;;;;;;;;;;5027186;28;20783;-29
2023/03/05 06:27:49;;;;;;;31.40;14.90;;;;;;;;;;5026108;28;20561;-32
2023/03/05 06:30:17;;;;;;;33.73;16.00;;;;;;;;;;5034069;28;20879;-31
2023/03/05 06:32:44;;;;;;;29.93;15.20;;;;;;;;;;5031602;28;20433;-29
2023/03/05 06:35:12;;;;;;;31.20;14.30;;;;;;;;;;5031522;28;20202;-33
2023/03/05 06:37:40;;;;;;;31.27;14.70;;;;;;;;;;5035855;28;20243;-33
2023/03/05 06:40:09;;;;;;;31.63;14.30;;;;;;;;;;5026162;28;20209;-29
2023/03/05 06:42:37;;;;;;;26.97;13.63;;;;;;;;;;5028444;28;20199;-33
2023/03/05 06:45:04;;;;;;;34.43;15.33;;;;;;;;;;5029659;28;20552;-32
2023/03/05 06:47:31;;;;;;;38.40;15.93;;;;;;;;;;5031310;28;20225;-33
2023/03/05 06:49:58;;;;;;;29.63;14.80;;;;;;;;;;5031242;28;20741;-34
2023/03/05 06:52:25;;;;;;;32.23;14.67;;;;;;;;;;5029707;28;20206;-33
2023/03/05 06:54:54;;;;;;;32.83;15.30;;;;;;;;;;5031094;28;20228;-31
2023/03/05 06:57:23;;;;;;;37.37;15.53;;;;;;;;;;5031509;28;20230;-30
2023/03/05 06:59:50;;;;;;;30.73;14.87;;;;;;;;;;5033488;28;20203;-32
2023/03/05 07:02:17;;;;;;;29.87;14.57;;;;;;;;;;5031635;28;20195;-28
2023/03/05 07:04:45;;;;;;;31.90;14.90;;;;;;;;;;5031834;28;20249;-28
2023/03/05 07:07:12;;;;;;;31.90;15.03;;;;;;;;;;5027630;28;20656;-31
2023/03/05 07:09:41;;;;;;;36.93;15.93;;;;;;;;;;5031232;28;20194;-27
2023/03/05 07:12:09;;;;;;;33.93;15.40;;;;;;;;;;5031749;28;20206;-29
2023/03/05 07:14:37;;;;;;;28.60;14.83;;;;;;;;;;5028351;28;20210;-31
2023/03/05 07:17:06;;;;;;;32.03;15.47;;;;;;;;;;5034561;28;20568;-28
2023/03/05 07:19:33;;;;;;;33.90;14.33;;;;;;;;;;5033061;28;20562;-31
2023/03/05 07:22:00;;;;;;;30.77;14.17;;;;;;;;;;5035337;28;20285;-28
2023/03/05 07:24:28;;;;;;;25.43;13.37;;;;;;;;;;5033276;28;20205;-27
2023/03/05 07:26:56;;;;;;;30.57;13.60;;;;;;;;;;5034984;28;20210;-31
2023/03/05 07:29:23;;;;;;;34.77;14.57;;;;;;;;;;5035913;28;20215;-32
2023/03/05 07:31:52;;;;;;;32.73;15.50;;;;;;;;;;5039550;28;20223;-32
2023/03/05 07:34:19;;;;;;;30.83;15.10;;;;;;;;;;5034337;28;20201;-29
2023/03/05 07:36:46;;;;;;;30.13;15.37;;;;;;;;;;5031079;28;20226;-29
2023/03/05 07:39:13;;;;;;;31.63;14.03;;;;;;;;;;5034578;28;20686;-27
2023/03/05 07:41:40;;;;;;;32.90;14.80;;;;;;;;;;5034998;28;20640;-32
2023/03/05 07:44:08;;;;;;;32.97;15.63;;;;;;;;;;5035215;28;20212;-28
2023/03/05 07:46:35;;;;;;;37.13;15.60;;;;;;;;;;5029546;28;20222;-29
2023/03/05 07:49:03;;;;;;;36.87;15.73;;;;;;;;;;5034818;28;20245;-29
2023/03/05 07:51:31;;;;;;;30.40;14.03;;;;;;;;;;5034675;28;20232;-32
2023/03/05 07:53:58;;;;;;;32.80;15.40;;;;;;;;;;5023644;28;20207;-32
2023/03/05 07:56:27;;;;;;;33.80;15.87;;;;;;;;;;5032095;28;20222;-29
2023/03/05 07:58:54;;;;;;;32.07;14.87;;;;;;;;;;5032970;28;20199;-31
2023/03/05 08:01:22;;;;;;;28.30;14.70;;;;;;;;;;5039699;28;20206;-32
2023/03/05 08:03:49;;;;;;;31.67;14.80;;;;;;;;;;5034781;28;20202;-33
2023/03/05 08:06:17;;;;;;;31.80;15.27;;;;;;;;;;5032226;28;20567;-30
2023/03/05 08:08:44;;;;;;;29.93;14.70;;;;;;;;;;5034794;28;20190;-33
2023/03/05 08:11:13;;;;;;;31.27;15.20;;;;;;;;;;5034736;28;20310;-30
2023/03/05 08:13:40;;;;;;;29.80;14.07;;;;;;;;;;5032128;28;20195;-31
2023/03/05 08:16:08;;;;;;;27.60;14.07;;;;;;;;;;5039099;28;20217;-30
2023/03/05 08:18:35;;;;;;;29.47;13.90;;;;;;;;;;5034450;28;20207;-29
2023/03/05 08:21:02;;;;;;;30.73;14.17;;;;;;;;;;5034887;28;20285;-33
2023/03/05 08:23:33;;;;;;;27.43;14.07;;;;;;;;;;5033641;28;20202;-32
2023/03/05 08:26:00;;;;;;;30.60;14.57;;;;;;;;;;5045455;28;20199;-25
2023/03/05 08:28:27;;;;;;;32.13;13.67;;;;;;;;;;5035629;28;20201;-33
2023/03/05 08:30:54;;;;;;;33.27;14.07;;;;;;;;;;5042831;28;20217;-32
2023/03/05 08:33:22;;;;;;;29.73;14.10;;;;;;;;;;5032733;28;20237;-34
2023/03/05 08:35:49;;;;;;;34.20;15.03;;;;;;;;;;5031970;28;20202;-26
2023/03/05 08:38:16;;;;;;;32.97;15.87;;;;;;;;;;5039026;28;20229;-29
2023/03/05 08:40:44;;;;;;;29.50;14.77;;;;;;;;;;5032447;28;20187;-29
2023/03/05 08:43:11;;;;;;;26.67;13.63;;;;;;;;;;5032188;28;20206;-30
2023/03/05 08:45:39;;;;;;;30.73;14.50;;;;;;;;;;5039124;28;20198;-32
2023/03/05 08:48:07;;;;;;;30.83;15.07;;;;;;;;;;5033763;28;20219;-28
2023/03/05 08:50:34;;;;;;;31.43;15.47;;;;;;;;;;5033504;28;20572;-29
2023/03/05 08:53:01;;;;;;;34.87;14.40;;;;;;;;;;5032912;28;20206;-34
2023/03/05 08:55:29;;;;;;;32.47;15.47;;;;;;;;;;5031560;28;20206;-26
2023/03/05 08:57:57;;;;;;;38.50;16.30;;;;;;;;;;5028630;28;20219;-34
2023/03/05 09:00:25;;;;;;;29.90;14.90;;;;;;;;;;5043360;28;20667;-35
2023/03/05 09:02:52;;;;;;;34.93;15.67;;;;;;;;;;5325847;22;20446;-26
2023/03/05 09:05:19;;;;;;;32.50;15.07;;;;;;;;;;5091107;28;20208;-28
2023/03/05 09:07:46;;;;;;;34.53;15.33;;;;;;;;;;5088975;28;20215;-27
2023/03/05 09:10:14;;;;;;;28.80;13.87;;;;;;;;;;5107400;28;20204;-25
2023/03/05 09:12:41;;;;;;;29.87;15.00;;;;;;;;;;5086681;28;20650;-27
2023/03/05 09:15:11;;;;;;;30.77;14.90;;;;;;;;;;5082378;28;20214;-28
2023/03/05 09:17:40;;;;;;;28.50;14.30;;;;;;;;;;5110737;28;20220;-24
2023/03/05 09:20:08;;;;;;;32.67;14.87;;;;;;;;;;5110554;28;20211;-26
2023/03/05 09:22:35;;;;;;;28.77;14.17;;;;;;;;;;5093913;28;20208;-26
2023/03/05 09:25:02;;;;;;;28.33;13.30;;;;;;;;;;5090404;28;20204;-27
2023/03/05 09:27:29;;;;;;;35.83;14.33;;;;;;;;;;5096947;28;20221;-24
2023/03/05 09:29:56;;;;;;;29.80;13.60;;;;;;;;;;5091743;28;20205;-27
2023/03/05 09:32:25;;;;;;;29.30;13.37;;;;;;;;;;5098782;28;20598;-27
2023/03/05 09:34:52;;;;;;;29.13;14.07;;;;;;;;;;5090257;28;20208;-25
2023/03/05 09:37:19;;;;;;;30.77;14.30;;;;;;;;;;5089458;28;20225;-27
2023/03/05 09:39:46;;;;;;;32.33;13.07;;;;;;;;;;5100650;28;20200;-27
2023/03/05 09:42:30;;;;;;;31.17;14.33;;;;;;;;;;5100393;28;20193;-29
2023/03/05 09:45:03;;;;;;;27.33;13.80;;;;;;;;;;5084783;28;20204;-25
2023/03/05 09:47:40;;;;;;;28.63;14.83;;;;;;;;;;5102053;28;20219;-28
2023/03/05 09:50:13;;;;;;;25.17;13.60;;;;;;;;;;5105991;28;20214;-27
2023/03/05 09:52:43;;;;;;;26.50;12.83;;;;;;;;;;5101827;28;20216;-26
2023/03/05 09:55:14;;;;;;;27.47;13.70;;;;;;;;;;5110890;28;20549;-25
2023/03/05 09:57:43;;;;;;;28.63;13.50;;;;;;;;;;5104552;28;20374;-26
2023/03/05 10:00:17;;;;;;;33.53;14.13;;;;;;;;;;5081367;28;20216;-26
2023/03/05 10:02:48;;;;;;;25.37;12.37;;;;;;;;;;5104660;28;20212;-25
2023/03/05 10:05:19;;;;;;;28.57;13.33;;;;;;;;;;5090715;28;20204;-26
2023/03/05 10:07:52;;;;;;;31.33;14.23;;;;;;;;;;5087621;28;20220;-25
2023/03/05 10:10:24;;;;;;;23.97;12.00;;;;;;;;;;5097217;28;20213;-25
2023/03/05 10:12:52;;;;;;;28.70;13.80;;;;;;;;;;5084048;28;20300;-25
2023/03/05 10:15:23;;;;;;;22.37;13.17;;;;;;;;;;5086778;28;20209;-27
2023/03/05 10:17:57;;;;;;;28.00;12.83;;;;;;;;;;5105390;28;20223;-26
2023/03/05 10:20:31;;;;;;;23.50;12.90;;;;;;;;;;5110775;28;20215;-28
2023/03/05 10:23:06;;;;;;;22.97;10.63;;;;;;;;;;5100319;28;20212;-25
2023/03/05 10:25:42;;;;;;;22.00;11.23;;;;;;;;;;5096957;28;20201;-24
2023/03/05 10:28:16;;;;;;;24.70;11.87;;;;;;;;;;5097178;28;20383;-24
2023/03/05 10:30:54;;;;;;;22.00;11.63;;;;;;;;;;5096305;28;20204;-25
2023/03/05 10:33:28;;;;;;;19.23;10.03;;;;;;;;;;5109846;28;20273;-26
2023/03/05 10:36:19;;;;;;;22.90;10.90;;;;;;;;;;5104444;28;20205;-26
2023/03/05 10:39:16;;;;;;;25.27;10.80;;;;;;;;;;5083069;28;20207;-25
2023/03/05 10:41:51;;;;;;;23.50;10.73;;;;;;;;;;5027528;28;20212;-26
2023/03/05 10:44:20;;;;;;;22.47;12.30;;;;;;;;;;5077345;28;20204;-27
2023/03/05 10:46:48;;;;;;;25.37;12.17;;;;;;;;;;5090792;28;20220;-27
2023/03/05 10:49:19;;;;;;;24.03;11.43;;;;;;;;;;5109207;28;20299;-25
2023/03/05 10:51:50;;;;;;;29.83;11.23;;;;;;;;;;5090704;28;20414;-24
2023/03/05 10:54:20;;;;;;;22.47;12.10;;;;;;;;;;5084866;28;20208;-25
2023/03/05 10:56:47;;;;;;;24.67;11.70;;;;;;;;;;5095100;28;20225;-25
2023/03/05 10:59:14;;;;;;;22.10;11.03;;;;;;;;;;5089206;28;20205;-25
2023/03/05 11:01:42;;;;;;;23.90;12.00;;;;;;;;;;5100919;28;20202;-26
2023/03/05 11:04:26;;;;;;;21.87;10.63;;;;;;;;;;5096401;28;20201;-27
2023/03/05 11:06:54;;;;;;;26.53;14.40;;;;;;;;;;5090821;28;20221;-28
2023/03/05 11:09:26;;;;;;;21.73;11.47;;;;;;;;;;5104269;28;20211;-27
2023/03/05 11:12:10;;;;;;;23.00;10.13;;;;;;;;;;5098882;28;20224;-24
2023/03/05 11:14:39;;;;;;;19.33;10.30;;;;;;;;;;5095364;28;20200;-25
2023/03/05 11:17:21;;;;;;;21.73;11.30;;;;;;;;;;5112074;28;20223;-26
2023/03/05 11:19:48;;;;;;;25.63;11.47;;;;;;;;;;5095127;28;20193;-25
2023/03/05 11:22:22;;;;;;;22.37;11.67;;;;;;;;;;5093269;28;20200;-26
2023/03/05 11:25:03;;;;;;;22.17;11.97;;;;;;;;;;5105264;28;20559;-25
2023/03/05 11:27:32;;;;;;;27.00;12.93;;;;;;;;;;5071555;28;20232;-27
2023/03/05 11:30:00;;;;;;;21.00;11.63;;;;;;;;;;5086262;28;20304;-26
2023/03/05 11:32:28;;;;;;;22.40;10.80;;;;;;;;;;5104380;28;20222;-25
2023/03/05 11:34:56;;;;;;;23.70;11.00;;;;;;;;;;5113440;28;20204;-25
2023/03/05 11:37:26;;;;;;;24.00;10.60;;;;;;;;;;5108051;28;20638;-26
2023/03/05 11:40:11;;;;;;;21.83;11.47;;;;;;;;;;5076900;28;20651;-25
2023/03/05 11:42:40;;;;;;;23.30;10.97;;;;;;;;;;5081072;28;20202;-28
2023/03/05 11:45:15;;;;;;;18.87;9.90;;;;;;;;;;5080108;28;20205;-27
2023/03/05 11:47:44;;;;;;;19.13;9.87;;;;;;;;;;5100379;28;20219;-27
2023/03/05 11:50:19;;;;;;;22.20;10.90;;;;;;;;;;5116153;28;20230;-25
2023/03/05 11:52:49;;;;;;;22.37;10.93;;;;;;;;;;5105249;28;20244;-25
2023/03/05 11:55:17;;;;;;;23.07;12.73;;;;;;;;;;5094868;28;20201;-26
2023/03/05 11:57:47;;;;;;;23.67;12.90;;;;;;;;;;5087647;28;20229;-26
2023/03/05 12:00:16;;;;;;;23.97;11.60;;;;;;;;;;5082463;28;20208;-26
2023/03/05 12:02:43;;;;;;;24.87;11.00;;;;;;;;;;5106368;28;20197;-26
2023/03/05 12:05:14;;;;;;;21.40;11.67;;;;;;;;;;5091825;28;20204;-25
2023/03/05 12:07:43;;;;;;;21.10;10.10;;;;;;;;;;5087811;28;20224;-24
2023/03/05 12:10:17;;;;;;;21.53;11.00;;;;;;;;;;5076571;28;20209;-25
2023/03/05 12:12:48;;;;;;;21.03;10.63;;;;;;;;;;5095875;28;20205;-23
2023/03/05 12:15:26;;;;;;;21.93;11.30;;;;;;;;;;5091285;28;20201;-26
2023/03/05 12:17:56;;;;;;;26.20;11.93;;;;;;;;;;5104931;28;20227;-32
2023/03/05 12:20:27;;;;;;;24.10;10.80;;;;;;;;;;5092124;28;20208;-27
2023/03/05 12:22:56;;;;;;;21.23;11.37;;;;;;;;;;5081762;28;20207;-27
2023/03/05 12:25:32;;;;;;;26.60;11.50;;;;;;;;;;5100192;28;20243;-23
2023/03/05 12:27:59;;;;;;;24.17;11.37;;;;;;;;;;5100119;28;20262;-25
2023/03/05 12:30:44;;;;;;;20.23;10.47;;;;;;;;;;5085713;28;20581;-26
2023/03/05 12:33:30;;;;;;;21.27;10.83;;;;;;;;;;5098320;28;20224;-28
2023/03/05 12:36:13;;;;;;;16.60;9.23;;;;;;;;;;5087211;28;20201;-25
2023/03/05 12:38:40;;;;;;;24.40;12.37;;;;;;;;;;5086557;28;20284;-28
2023/03/05 12:41:27;;;;;;;28.77;15.07;;;;;;;;;;5102354;28;20195;-23
2023/03/05 12:47:08;;;;;;;19.93;10.67;;;;;;;;;;5146421;27;20606;-30
2023/03/05 12:49:38;;;;;;;22.27;11.43;;;;;;;;;;5150072;27;20202;-30
2023/03/05 12:52:06;;;;;;;24.20;14.00;;;;;;;;;;5139266;27;20206;-31
2023/03/05 12:54:33;;;;;;;23.20;11.40;;;;;;;;;;5153790;27;20205;-32
2023/03/05 12:57:01;;;;;;;30.70;16.50;;;;;;;;;;5169124;27;20225;-29
2023/03/05 12:59:33;;;;;;;22.27;10.20;;;;;;;;;;5142872;27;20205;-31
2023/03/05 13:02:03;;;;;;;29.53;17.83;;;;;;;;;;5161789;27;20197;-34
2023/03/05 13:04:31;;;;;;;36.43;21.13;;;;;;;;;;5170258;27;20201;-31
2023/03/05 13:06:59;;;;;;;30.70;17.43;;;;;;;;;;5171334;27;20243;-32
2023/03/05 13:09:28;;;;;;;20.33;10.93;;;;;;;;;;5150616;27;20233;-32
2023/03/05 13:11:56;;;;;;;18.50;10.20;;;;;;;;;;5151119;27;20658;-37
2023/03/05 13:14:31;;;;;;;18.97;10.03;;;;;;;;;;5140721;27;20207;-31
2023/03/05 13:16:58;;;;;;;18.10;10.10;;;;;;;;;;5152203;27;20229;-31
2023/03/05 13:19:27;;;;;;;13.90;8.03;;;;;;;;;;5148038;27;20202;-32
2023/03/05 13:21:58;;;;;;;20.80;9.63;;;;;;;;;;5147405;27;20212;-32
2023/03/05 13:24:25;;;;;;;15.93;8.77;;;;;;;;;;5155539;27;20195;-29
2023/03/05 13:26:52;;;;;;;18.83;9.00;;;;;;;;;;5147699;27;20227;-34
2023/03/05 13:29:20;;;;;;;16.80;9.20;;;;;;;;;;5147988;27;20231;-34
2023/03/05 13:31:48;;;;;;;19.77;9.27;;;;;;;;;;5154693;27;20206;-39
2023/03/05 13:34:17;;;;;;;15.77;9.57;;;;;;;;;;5168088;27;20224;-31
2023/03/05 13:36:48;;;;;;;18.33;9.10;;;;;;;;;;5148254;27;20326;-34
2023/03/05 13:39:20;;;;;;;18.10;9.30;;;;;;;;;;5146960;27;20214;-35
2023/03/05 13:41:56;;;;;;;19.30;9.03;;;;;;;;;;5162405;27;20198;-31
2023/03/05 13:44:23;;;;;;;17.50;8.40;;;;;;;;;;5141920;27;20217;-34
2023/03/05 13:46:50;;;;;;;13.43;8.33;;;;;;;;;;5157922;27;20226;-32
2023/03/05 13:49:19;;;;;;;16.77;9.10;;;;;;;;;;5148799;27;20206;-35
2023/03/05 13:51:50;;;;;;;17.23;8.73;;;;;;;;;;5147530;27;20203;-31
2023/03/05 13:54:18;;;;;;;16.80;9.13;;;;;;;;;;5143878;27;20205;-31
2023/03/05 13:56:52;;;;;;;17.57;8.87;;;;;;;;;;5143304;27;20226;-32
2023/03/05 13:59:20;;;;;;;14.90;8.40;;;;;;;;;;5128417;27;20214;-31
2023/03/05 14:01:48;;;;;;;18.27;9.00;;;;;;;;;;5136774;27;20290;-31
2023/03/05 14:04:20;;;;;;;18.13;9.20;;;;;;;;;;5133134;27;20210;-34
2023/03/05 14:06:49;;;;;;;16.03;9.17;;;;;;;;;;5133351;27;20232;-37
2023/03/05 14:09:20;;;;;;;15.53;7.90;;;;;;;;;;5121441;27;20203;-31
2023/03/05 14:11:52;;;;;;;16.17;8.47;;;;;;;;;;5133443;27;20242;-31
2023/03/05 14:14:20;;;;;;;16.43;8.83;;;;;;;;;;5129899;27;20206;-30
2023/03/05 14:16:48;;;;;;;16.20;8.17;;;;;;;;;;5127780;27;20268;-32
2023/03/05 14:19:31;;;;;;;15.30;8.40;;;;;;;;;;5151939;27;20206;-33
2023/03/05 14:22:00;;;;;;;18.03;9.23;;;;;;;;;;5151212;27;20227;-35
2023/03/05 14:24:30;;;;;;;15.40;9.17;;;;;;;;;;5134962;27;20243;-29
2023/03/05 14:26:58;;;;;;;16.90;8.47;;;;;;;;;;5137029;27;20696;-32
2023/03/05 14:29:26;;;;;;;13.53;7.60;;;;;;;;;;5124935;27;20693;-32
2023/03/05 14:31:54;;;;;;;17.83;7.80;;;;;;;;;;5128190;27;20558;-29